sensor_id;sensor_type;location;lat;lon;timestamp;P1;durP1;ratioP1;P2;durP2;ratioP2
63653;SDS011;49809;47.418;19.080;2024-02-14T00:02:47;6.32;;;3.47;;
63653;SDS011;49809;47.418;19.080;2024-02-14T00:06:21;5.95;;;4.00;;
63653;SDS011;49809;47.418;19.080;2024-02-14T00:09:54;9.05;;;3.90;;
63653;SDS011;49809;47.418;19.080;2024-02-14T00:17:05;8.60;;;3.62;;
63653;SDS011;49809;47.418;19.080;2024-02-14T00:20:35;9.55;;;4.20;;
63653;SDS011;49809;47.418;19.080;2024-02-14T00:24:11;7.12;;;3.75;;
63653;SDS011;49809;47.418;19.080;2024-02-14T00:27:37;7.95;;;4.07;;
63653;SDS011;49809;47.418;19.080;2024-02-14T00:30:57;5.95;;;3.67;;
63653;SDS011;49809;47.418;19.080;2024-02-14T00:34:26;7.53;;;4.05;;
63653;SDS011;49809;47.418;19.080;2024-02-14T00:41:13;7.45;;;3.67;;
63653;SDS011;49809;47.418;19.080;2024-02-14T00:44:48;8.05;;;4.03;;
63653;SDS011;49809;47.418;19.080;2024-02-14T00:48:18;8.35;;;3.95;;
63653;SDS011;49809;47.418;19.080;2024-02-14T00:51:59;7.40;;;3.83;;
63653;SDS011;49809;47.418;19.080;2024-02-14T00:55:56;7.82;;;3.85;;
63653;SDS011;49809;47.418;19.080;2024-02-14T00:59:29;10.10;;;3.92;;
63653;SDS011;49809;47.418;19.080;2024-02-14T01:03:10;6.00;;;3.40;;
63653;SDS011;49809;47.418;19.080;2024-02-14T01:06:45;7.75;;;4.28;;
63653;SDS011;49809;47.418;19.080;2024-02-14T01:10:27;10.93;;;3.55;;
63653;SDS011;49809;47.418;19.080;2024-02-14T01:13:56;5.60;;;2.60;;
63653;SDS011;49809;47.418;19.080;2024-02-14T01:17:29;4.55;;;2.33;;
63653;SDS011;49809;47.418;19.080;2024-02-14T01:20:58;3.90;;;2.50;;
63653;SDS011;49809;47.418;19.080;2024-02-14T01:24:15;4.40;;;2.23;;
63653;SDS011;49809;47.418;19.080;2024-02-14T01:27:51;4.35;;;2.30;;
63653;SDS011;49809;47.418;19.080;2024-02-14T01:31:24;3.95;;;2.20;;
63653;SDS011;49809;47.418;19.080;2024-02-14T01:35:01;3.67;;;2.17;;
63653;SDS011;49809;47.418;19.080;2024-02-14T01:38:39;4.65;;;2.53;;
63653;SDS011;49809;47.418;19.080;2024-02-14T01:42:09;4.37;;;2.40;;
63653;SDS011;49809;47.418;19.080;2024-02-14T01:45:46;4.12;;;2.28;;
63653;SDS011;49809;47.418;19.080;2024-02-14T01:49:26;3.42;;;2.08;;
63653;SDS011;49809;47.418;19.080;2024-02-14T01:52:47;5.43;;;2.20;;
63653;SDS011;49809;47.418;19.080;2024-02-14T01:56:18;4.18;;;2.28;;
63653;SDS011;49809;47.418;19.080;2024-02-14T01:59:39;5.00;;;2.20;;
63653;SDS011;49809;47.418;19.080;2024-02-14T02:03:08;3.62;;;2.15;;
63653;SDS011;49809;47.418;19.080;2024-02-14T02:06:51;2.30;;;1.85;;
63653;SDS011;49809;47.418;19.080;2024-02-14T02:10:25;4.45;;;2.53;;
63653;SDS011;49809;47.418;19.080;2024-02-14T02:14:00;4.30;;;2.10;;
63653;SDS011;49809;47.418;19.080;2024-02-14T02:17:22;3.45;;;2.20;;
63653;SDS011;49809;47.418;19.080;2024-02-14T02:21:02;4.12;;;2.22;;
63653;SDS011;49809;47.418;19.080;2024-02-14T02:28:18;4.90;;;2.40;;
63653;SDS011;49809;47.418;19.080;2024-02-14T02:31:52;6.75;;;2.62;;
63653;SDS011;49809;47.418;19.080;2024-02-14T02:38:57;6.37;;;2.00;;
63653;SDS011;49809;47.418;19.080;2024-02-14T02:42:27;4.70;;;2.03;;
63653;SDS011;49809;47.418;19.080;2024-02-14T02:46:14;7.32;;;2.55;;
63653;SDS011;49809;47.418;19.080;2024-02-14T02:49:49;2.50;;;1.67;;
63653;SDS011;49809;47.418;19.080;2024-02-14T02:53:37;4.50;;;2.13;;
63653;SDS011;49809;47.418;19.080;2024-02-14T02:57:12;3.60;;;2.10;;
63653;SDS011;49809;47.418;19.080;2024-02-14T03:04:21;5.68;;;2.30;;
63653;SDS011;49809;47.418;19.080;2024-02-14T03:08:10;6.32;;;2.28;;
63653;SDS011;49809;47.418;19.080;2024-02-14T03:11:50;4.10;;;2.40;;
63653;SDS011;49809;47.418;19.080;2024-02-14T03:15:22;4.60;;;2.60;;
63653;SDS011;49809;47.418;19.080;2024-02-14T03:18:54;4.93;;;2.62;;
63653;SDS011;49809;47.418;19.080;2024-02-14T03:22:29;6.60;;;3.12;;
63653;SDS011;49809;47.418;19.080;2024-02-14T03:26:16;8.55;;;3.03;;
63653;SDS011;49809;47.418;19.080;2024-02-14T03:29:47;6.50;;;3.20;;
63653;SDS011;49809;47.418;19.080;2024-02-14T03:33:05;6.62;;;2.85;;
63653;SDS011;49809;47.418;19.080;2024-02-14T03:36:39;7.75;;;3.15;;
63653;SDS011;49809;47.418;19.080;2024-02-14T03:40:01;5.05;;;3.03;;
63653;SDS011;49809;47.418;19.080;2024-02-14T03:43:36;6.37;;;3.25;;
63653;SDS011;49809;47.418;19.080;2024-02-14T03:46:56;6.07;;;3.50;;
63653;SDS011;49809;47.418;19.080;2024-02-14T03:50:14;7.28;;;2.90;;
63653;SDS011;49809;47.418;19.080;2024-02-14T03:53:36;6.45;;;2.78;;
63653;SDS011;49809;47.418;19.080;2024-02-14T03:57:06;4.68;;;3.03;;
63653;SDS011;49809;47.418;19.080;2024-02-14T04:00:42;8.90;;;3.35;;
63653;SDS011;49809;47.418;19.080;2024-02-14T04:14:29;6.82;;;3.83;;
63653;SDS011;49809;47.418;19.080;2024-02-14T04:18:06;7.60;;;3.62;;
63653;SDS011;49809;47.418;19.080;2024-02-14T04:21:40;10.15;;;4.07;;
63653;SDS011;49809;47.418;19.080;2024-02-14T04:25:08;9.13;;;3.95;;
63653;SDS011;49809;47.418;19.080;2024-02-14T04:28:26;8.32;;;4.30;;
63653;SDS011;49809;47.418;19.080;2024-02-14T04:31:48;12.80;;;4.45;;
63653;SDS011;49809;47.418;19.080;2024-02-14T04:35:31;10.13;;;5.00;;
63653;SDS011;49809;47.418;19.080;2024-02-14T04:39:04;11.38;;;4.43;;
63653;SDS011;49809;47.418;19.080;2024-02-14T04:42:43;9.68;;;4.35;;
63653;SDS011;49809;47.418;19.080;2024-02-14T04:46:18;11.02;;;4.45;;
63653;SDS011;49809;47.418;19.080;2024-02-14T04:49:51;12.02;;;5.28;;
63653;SDS011;49809;47.418;19.080;2024-02-14T04:53:12;9.27;;;4.68;;
63653;SDS011;49809;47.418;19.080;2024-02-14T04:56:43;10.10;;;4.62;;
63653;SDS011;49809;47.418;19.080;2024-02-14T05:00:15;8.85;;;4.22;;
63653;SDS011;49809;47.418;19.080;2024-02-14T05:03:30;10.02;;;4.80;;
63653;SDS011;49809;47.418;19.080;2024-02-14T05:07:05;12.73;;;5.72;;
63653;SDS011;49809;47.418;19.080;2024-02-14T05:10:53;11.93;;;5.68;;
63653;SDS011;49809;47.418;19.080;2024-02-14T05:14:25;14.40;;;6.30;;
63653;SDS011;49809;47.418;19.080;2024-02-14T05:17:56;14.80;;;6.18;;
63653;SDS011;49809;47.418;19.080;2024-02-14T05:21:33;15.18;;;6.57;;
63653;SDS011;49809;47.418;19.080;2024-02-14T05:25:15;18.30;;;6.37;;
63653;SDS011;49809;47.418;19.080;2024-02-14T05:28:48;16.27;;;5.93;;
63653;SDS011;49809;47.418;19.080;2024-02-14T05:32:33;16.20;;;6.55;;
63653;SDS011;49809;47.418;19.080;2024-02-14T05:36:14;12.88;;;5.93;;
63653;SDS011;49809;47.418;19.080;2024-02-14T05:39:49;14.27;;;6.30;;
63653;SDS011;49809;47.418;19.080;2024-02-14T05:43:19;17.98;;;6.80;;
63653;SDS011;49809;47.418;19.080;2024-02-14T05:46:49;18.50;;;6.82;;
63653;SDS011;49809;47.418;19.080;2024-02-14T05:50:22;11.32;;;5.97;;
63653;SDS011;49809;47.418;19.080;2024-02-14T05:53:44;18.02;;;5.57;;
63653;SDS011;49809;47.418;19.080;2024-02-14T05:57:12;11.12;;;5.40;;
63653;SDS011;49809;47.418;19.080;2024-02-14T06:00:31;13.48;;;6.43;;
63653;SDS011;49809;47.418;19.080;2024-02-14T06:04:03;15.75;;;6.30;;
63653;SDS011;49809;47.418;19.080;2024-02-14T06:11:06;15.30;;;6.03;;
63653;SDS011;49809;47.418;19.080;2024-02-14T06:14:37;14.38;;;6.40;;
63653;SDS011;49809;47.418;19.080;2024-02-14T06:18:10;13.77;;;7.00;;
63653;SDS011;49809;47.418;19.080;2024-02-14T06:21:35;18.17;;;7.12;;
63653;SDS011;49809;47.418;19.080;2024-02-14T06:28:47;19.58;;;6.62;;
63653;SDS011;49809;47.418;19.080;2024-02-14T06:32:39;17.33;;;7.40;;
63653;SDS011;49809;47.418;19.080;2024-02-14T06:36:08;18.30;;;7.70;;
63653;SDS011;49809;47.418;19.080;2024-02-14T06:39:45;28.70;;;10.80;;
63653;SDS011;49809;47.418;19.080;2024-02-14T06:43:17;29.92;;;11.20;;
63653;SDS011;49809;47.418;19.080;2024-02-14T06:47:06;40.65;;;17.30;;
63653;SDS011;49809;47.418;19.080;2024-02-14T06:50:44;47.30;;;19.42;;
63653;SDS011;49809;47.418;19.080;2024-02-14T06:54:20;38.17;;;15.52;;
63653;SDS011;49809;47.418;19.080;2024-02-14T06:57:51;30.15;;;13.52;;
63653;SDS011;49809;47.418;19.080;2024-02-14T07:01:26;33.65;;;12.65;;
63653;SDS011;49809;47.418;19.080;2024-02-14T07:04:56;35.15;;;13.13;;
63653;SDS011;49809;47.418;19.080;2024-02-14T07:08:32;34.10;;;14.85;;
63653;SDS011;49809;47.418;19.080;2024-02-14T07:16:08;33.47;;;13.95;;
63653;SDS011;49809;47.418;19.080;2024-02-14T07:19:25;30.70;;;10.00;;
63653;SDS011;49809;47.418;19.080;2024-02-14T07:23:33;16.50;;;6.68;;
63653;SDS011;49809;47.418;19.080;2024-02-14T07:27:02;12.70;;;5.97;;
63653;SDS011;49809;47.418;19.080;2024-02-14T07:30:37;13.82;;;6.70;;
63653;SDS011;49809;47.418;19.080;2024-02-14T07:34:07;13.75;;;7.22;;
63653;SDS011;49809;47.418;19.080;2024-02-14T07:37:51;12.52;;;6.47;;
63653;SDS011;49809;47.418;19.080;2024-02-14T07:41:27;12.13;;;6.28;;
63653;SDS011;49809;47.418;19.080;2024-02-14T07:45:32;16.02;;;7.03;;
63653;SDS011;49809;47.418;19.080;2024-02-14T07:48:58;13.13;;;6.93;;
63653;SDS011;49809;47.418;19.080;2024-02-14T07:52:34;15.40;;;6.72;;
63653;SDS011;49809;47.418;19.080;2024-02-14T07:56:13;12.48;;;6.25;;
63653;SDS011;49809;47.418;19.080;2024-02-14T07:59:57;14.90;;;6.32;;
63653;SDS011;49809;47.418;19.080;2024-02-14T08:07:30;12.93;;;6.35;;
63653;SDS011;49809;47.418;19.080;2024-02-14T08:22:15;13.73;;;6.22;;
63653;SDS011;49809;47.418;19.080;2024-02-14T08:33:36;8.98;;;3.92;;
63653;SDS011;49809;47.418;19.080;2024-02-14T08:40:42;9.52;;;5.15;;
63653;SDS011;49809;47.418;19.080;2024-02-14T08:44:18;9.10;;;4.50;;
63653;SDS011;49809;47.418;19.080;2024-02-14T08:47:48;9.68;;;4.75;;
63653;SDS011;49809;47.418;19.080;2024-02-14T08:51:39;12.30;;;5.78;;
63653;SDS011;49809;47.418;19.080;2024-02-14T08:59:32;7.82;;;4.78;;
63653;SDS011;49809;47.418;19.080;2024-02-14T09:03:19;8.75;;;4.35;;
63653;SDS011;49809;47.418;19.080;2024-02-14T09:14:21;7.32;;;4.35;;
63653;SDS011;49809;47.418;19.080;2024-02-14T09:18:12;6.80;;;3.70;;
63653;SDS011;49809;47.418;19.080;2024-02-14T09:39:48;11.73;;;5.03;;
63653;SDS011;49809;47.418;19.080;2024-02-14T09:43:57;8.63;;;5.03;;
63653;SDS011;49809;47.418;19.080;2024-02-14T09:47:45;9.40;;;5.10;;
63653;SDS011;49809;47.418;19.080;2024-02-14T09:51:53;9.23;;;4.50;;
63653;SDS011;49809;47.418;19.080;2024-02-14T09:55:31;10.57;;;4.65;;
63653;SDS011;49809;47.418;19.080;2024-02-14T09:59:22;10.05;;;4.70;;
63653;SDS011;49809;47.418;19.080;2024-02-14T10:18:14;5.30;;;2.75;;
63653;SDS011;49809;47.418;19.080;2024-02-14T10:40:38;4.30;;;2.92;;
63653;SDS011;49809;47.418;19.080;2024-02-14T11:06:29;6.55;;;3.33;;
63653;SDS011;49809;47.418;19.080;2024-02-14T11:10:08;7.03;;;3.00;;
63653;SDS011;49809;47.418;19.080;2024-02-14T11:14:08;6.30;;;3.25;;
63653;SDS011;49809;47.418;19.080;2024-02-14T11:18:05;5.60;;;3.17;;
63653;SDS011;49809;47.418;19.080;2024-02-14T11:21:49;6.12;;;3.17;;
63653;SDS011;49809;47.418;19.080;2024-02-14T11:25:28;6.45;;;3.25;;
63653;SDS011;49809;47.418;19.080;2024-02-14T11:29:19;5.57;;;3.15;;
63653;SDS011;49809;47.418;19.080;2024-02-14T11:32:43;6.80;;;3.80;;
63653;SDS011;49809;47.418;19.080;2024-02-14T11:36:53;7.80;;;3.25;;
63653;SDS011;49809;47.418;19.080;2024-02-14T11:40:45;8.43;;;3.67;;
63653;SDS011;49809;47.418;19.080;2024-02-14T11:44:30;7.20;;;3.50;;
63653;SDS011;49809;47.418;19.080;2024-02-14T11:48:15;6.35;;;3.85;;
63653;SDS011;49809;47.418;19.080;2024-02-14T11:52:18;6.18;;;3.83;;
63653;SDS011;49809;47.418;19.080;2024-02-14T11:56:01;4.87;;;3.50;;
63653;SDS011;49809;47.418;19.080;2024-02-14T11:59:37;5.85;;;3.83;;
63653;SDS011;49809;47.418;19.080;2024-02-14T12:03:17;6.37;;;3.83;;
63653;SDS011;49809;47.418;19.080;2024-02-14T12:06:36;6.72;;;3.80;;
63653;SDS011;49809;47.418;19.080;2024-02-14T12:10:10;7.85;;;3.85;;
63653;SDS011;49809;47.418;19.080;2024-02-14T12:14:01;6.03;;;3.75;;
63653;SDS011;49809;47.418;19.080;2024-02-14T12:17:39;5.15;;;3.42;;
63653;SDS011;49809;47.418;19.080;2024-02-14T12:21:03;6.40;;;3.55;;
63653;SDS011;49809;47.418;19.080;2024-02-14T12:24:48;5.70;;;3.58;;
63653;SDS011;49809;47.418;19.080;2024-02-14T12:28:19;6.22;;;3.70;;
63653;SDS011;49809;47.418;19.080;2024-02-14T12:32:16;3.72;;;2.30;;
63653;SDS011;49809;47.418;19.080;2024-02-14T12:35:35;3.47;;;2.20;;
63653;SDS011;49809;47.418;19.080;2024-02-14T12:39:12;4.80;;;2.03;;
63653;SDS011;49809;47.418;19.080;2024-02-14T12:42:47;6.78;;;2.08;;
63653;SDS011;49809;47.418;19.080;2024-02-14T12:46:06;3.60;;;1.67;;
63653;SDS011;49809;47.418;19.080;2024-02-14T12:49:36;3.22;;;1.87;;
63653;SDS011;49809;47.418;19.080;2024-02-14T12:53:05;3.25;;;1.90;;
63653;SDS011;49809;47.418;19.080;2024-02-14T12:56:38;3.95;;;1.50;;
63653;SDS011;49809;47.418;19.080;2024-02-14T13:00:21;4.47;;;1.90;;
63653;SDS011;49809;47.418;19.080;2024-02-14T13:03:50;6.60;;;2.92;;
63653;SDS011;49809;47.418;19.080;2024-02-14T13:07:17;2.12;;;1.60;;
63653;SDS011;49809;47.418;19.080;2024-02-14T13:10:38;3.17;;;1.83;;
63653;SDS011;49809;47.418;19.080;2024-02-14T13:14:07;5.60;;;1.67;;
63653;SDS011;49809;47.418;19.080;2024-02-14T13:17:41;4.62;;;1.70;;
63653;SDS011;49809;47.418;19.080;2024-02-14T13:21:12;2.47;;;1.70;;
63653;SDS011;49809;47.418;19.080;2024-02-14T13:24:48;3.25;;;1.70;;
63653;SDS011;49809;47.418;19.080;2024-02-14T13:28:25;5.85;;;2.70;;
63653;SDS011;49809;47.418;19.080;2024-02-14T13:32:05;5.47;;;3.00;;
63653;SDS011;49809;47.418;19.080;2024-02-14T13:35:35;4.18;;;1.83;;
63653;SDS011;49809;47.418;19.080;2024-02-14T13:39:14;3.12;;;2.00;;
63653;SDS011;49809;47.418;19.080;2024-02-14T13:42:53;3.30;;;1.90;;
63653;SDS011;49809;47.418;19.080;2024-02-14T13:46:32;5.07;;;2.08;;
63653;SDS011;49809;47.418;19.080;2024-02-14T13:50:05;3.35;;;2.10;;
63653;SDS011;49809;47.418;19.080;2024-02-14T13:53:25;6.50;;;2.47;;
63653;SDS011;49809;47.418;19.080;2024-02-14T14:00:37;3.83;;;2.20;;
63653;SDS011;49809;47.418;19.080;2024-02-14T14:04:09;4.55;;;2.90;;
63653;SDS011;49809;47.418;19.080;2024-02-14T14:07:50;6.35;;;2.58;;
63653;SDS011;49809;47.418;19.080;2024-02-14T14:11:12;5.28;;;2.40;;
63653;SDS011;49809;47.418;19.080;2024-02-14T14:14:43;4.80;;;2.37;;
63653;SDS011;49809;47.418;19.080;2024-02-14T14:18:13;4.05;;;2.65;;
63653;SDS011;49809;47.418;19.080;2024-02-14T14:21:43;5.62;;;2.50;;
63653;SDS011;49809;47.418;19.080;2024-02-14T14:25:16;5.10;;;2.72;;
63653;SDS011;49809;47.418;19.080;2024-02-14T14:28:51;5.10;;;2.80;;
63653;SDS011;49809;47.418;19.080;2024-02-14T14:32:30;4.82;;;2.42;;
63653;SDS011;49809;47.418;19.080;2024-02-14T14:35:45;4.97;;;2.65;;
63653;SDS011;49809;47.418;19.080;2024-02-14T14:39:26;5.35;;;2.75;;
63653;SDS011;49809;47.418;19.080;2024-02-14T14:42:49;3.85;;;2.55;;
63653;SDS011;49809;47.418;19.080;2024-02-14T14:54:29;4.93;;;2.60;;
63653;SDS011;49809;47.418;19.080;2024-02-14T14:57:51;5.07;;;2.55;;
63653;SDS011;49809;47.418;19.080;2024-02-14T15:01:27;4.78;;;3.10;;
63653;SDS011;49809;47.418;19.080;2024-02-14T15:08:48;3.95;;;2.42;;
63653;SDS011;49809;47.418;19.080;2024-02-14T15:12:16;6.30;;;2.85;;
63653;SDS011;49809;47.418;19.080;2024-02-14T15:19:58;5.32;;;2.42;;
63653;SDS011;49809;47.418;19.080;2024-02-14T15:23:33;4.85;;;2.80;;
63653;SDS011;49809;47.418;19.080;2024-02-14T15:27:04;13.02;;;4.72;;
63653;SDS011;49809;47.418;19.080;2024-02-14T15:30:41;7.97;;;4.05;;
63653;SDS011;49809;47.418;19.080;2024-02-14T15:34:43;5.70;;;3.40;;
63653;SDS011;49809;47.418;19.080;2024-02-14T15:41:35;5.57;;;2.70;;
63653;SDS011;49809;47.418;19.080;2024-02-14T15:45:20;5.45;;;2.70;;
63653;SDS011;49809;47.418;19.080;2024-02-14T15:48:41;4.70;;;2.85;;
63653;SDS011;49809;47.418;19.080;2024-02-14T15:52:33;6.28;;;3.28;;
63653;SDS011;49809;47.418;19.080;2024-02-14T15:56:23;8.35;;;4.25;;
63653;SDS011;49809;47.418;19.080;2024-02-14T16:00:13;9.18;;;3.78;;
63653;SDS011;49809;47.418;19.080;2024-02-14T16:07:54;8.95;;;4.20;;
63653;SDS011;49809;47.418;19.080;2024-02-14T16:11:29;7.12;;;3.95;;
63653;SDS011;49809;47.418;19.080;2024-02-14T16:15:08;6.57;;;3.80;;
63653;SDS011;49809;47.418;19.080;2024-02-14T16:18:48;10.75;;;3.92;;
63653;SDS011;49809;47.418;19.080;2024-02-14T16:26:51;9.68;;;4.20;;
63653;SDS011;49809;47.418;19.080;2024-02-14T16:38:22;14.60;;;5.12;;
63653;SDS011;49809;47.418;19.080;2024-02-14T16:41:42;11.38;;;5.15;;
63653;SDS011;49809;47.418;19.080;2024-02-14T16:45:15;12.02;;;5.80;;
63653;SDS011;49809;47.418;19.080;2024-02-14T16:48:48;11.23;;;6.12;;
63653;SDS011;49809;47.418;19.080;2024-02-14T16:52:21;10.18;;;5.40;;
63653;SDS011;49809;47.418;19.080;2024-02-14T16:55:53;12.00;;;5.95;;
63653;SDS011;49809;47.418;19.080;2024-02-14T16:59:26;15.20;;;5.70;;
63653;SDS011;49809;47.418;19.080;2024-02-14T17:02:51;11.10;;;5.85;;
63653;SDS011;49809;47.418;19.080;2024-02-14T17:06:45;12.05;;;6.80;;
63653;SDS011;49809;47.418;19.080;2024-02-14T17:10:03;10.15;;;5.65;;
63653;SDS011;49809;47.418;19.080;2024-02-14T17:13:43;11.40;;;5.90;;
63653;SDS011;49809;47.418;19.080;2024-02-14T17:17:18;10.68;;;5.85;;
63653;SDS011;49809;47.418;19.080;2024-02-14T17:20:35;11.93;;;6.12;;
63653;SDS011;49809;47.418;19.080;2024-02-14T17:24:22;14.13;;;6.28;;
63653;SDS011;49809;47.418;19.080;2024-02-14T17:27:56;10.55;;;6.22;;
63653;SDS011;49809;47.418;19.080;2024-02-14T17:31:40;13.35;;;6.75;;
63653;SDS011;49809;47.418;19.080;2024-02-14T17:35:12;10.30;;;6.25;;
63653;SDS011;49809;47.418;19.080;2024-02-14T17:38:46;16.58;;;7.00;;
63653;SDS011;49809;47.418;19.080;2024-02-14T17:42:36;12.75;;;6.72;;
63653;SDS011;49809;47.418;19.080;2024-02-14T17:46:18;15.45;;;6.90;;
63653;SDS011;49809;47.418;19.080;2024-02-14T17:50:05;14.30;;;7.03;;
63653;SDS011;49809;47.418;19.080;2024-02-14T17:58:29;11.30;;;6.43;;
63653;SDS011;49809;47.418;19.080;2024-02-14T18:01:45;14.85;;;6.60;;
63653;SDS011;49809;47.418;19.080;2024-02-14T18:13:23;10.10;;;6.18;;
63653;SDS011;49809;47.418;19.080;2024-02-14T18:17:12;12.82;;;5.85;;
63653;SDS011;49809;47.418;19.080;2024-02-14T18:20:53;13.30;;;6.32;;
63653;SDS011;49809;47.418;19.080;2024-02-14T18:24:35;11.70;;;6.20;;
63653;SDS011;49809;47.418;19.080;2024-02-14T18:28:01;10.50;;;5.87;;
63653;SDS011;49809;47.418;19.080;2024-02-14T18:31:29;11.07;;;6.25;;
63653;SDS011;49809;47.418;19.080;2024-02-14T18:35:05;12.88;;;6.43;;
63653;SDS011;49809;47.418;19.080;2024-02-14T18:39:01;13.13;;;5.95;;
63653;SDS011;49809;47.418;19.080;2024-02-14T18:42:53;10.65;;;6.05;;
63653;SDS011;49809;47.418;19.080;2024-02-14T18:51:27;14.30;;;6.93;;
63653;SDS011;49809;47.418;19.080;2024-02-14T18:55:33;12.63;;;6.22;;
63653;SDS011;49809;47.418;19.080;2024-02-14T19:03:55;10.63;;;6.18;;
63653;SDS011;49809;47.418;19.080;2024-02-14T19:07:40;13.97;;;7.00;;
63653;SDS011;49809;47.418;19.080;2024-02-14T19:11:44;11.18;;;6.68;;
63653;SDS011;49809;47.418;19.080;2024-02-14T19:15:35;12.90;;;6.62;;
63653;SDS011;49809;47.418;19.080;2024-02-14T19:19:26;13.48;;;6.60;;
63653;SDS011;49809;47.418;19.080;2024-02-14T19:23:15;12.20;;;6.78;;
63653;SDS011;49809;47.418;19.080;2024-02-14T19:27:05;11.82;;;6.35;;
63653;SDS011;49809;47.418;19.080;2024-02-14T19:31:02;11.60;;;6.25;;
63653;SDS011;49809;47.418;19.080;2024-02-14T19:34:45;12.00;;;6.43;;
63653;SDS011;49809;47.418;19.080;2024-02-14T19:38:54;13.10;;;6.78;;
63653;SDS011;49809;47.418;19.080;2024-02-14T19:42:34;11.90;;;6.68;;
63653;SDS011;49809;47.418;19.080;2024-02-14T19:46:40;15.18;;;8.13;;
63653;SDS011;49809;47.418;19.080;2024-02-14T19:50:23;18.67;;;7.50;;
63653;SDS011;49809;47.418;19.080;2024-02-14T19:54:08;16.73;;;7.70;;
63653;SDS011;49809;47.418;19.080;2024-02-14T19:57:49;12.32;;;7.43;;
63653;SDS011;49809;47.418;19.080;2024-02-14T20:01:25;17.20;;;8.95;;
63653;SDS011;49809;47.418;19.080;2024-02-14T20:05:38;15.90;;;8.02;;
63653;SDS011;49809;47.418;19.080;2024-02-14T20:09:20;18.17;;;8.50;;
63653;SDS011;49809;47.418;19.080;2024-02-14T20:13:16;19.15;;;7.93;;
63653;SDS011;49809;47.418;19.080;2024-02-14T20:17:05;15.55;;;8.30;;
63653;SDS011;49809;47.418;19.080;2024-02-14T20:20:44;20.52;;;8.45;;
63653;SDS011;49809;47.418;19.080;2024-02-14T20:24:48;18.62;;;9.25;;
63653;SDS011;49809;47.418;19.080;2024-02-14T20:28:37;20.65;;;10.10;;
63653;SDS011;49809;47.418;19.080;2024-02-14T20:32:54;25.95;;;12.00;;
63653;SDS011;49809;47.418;19.080;2024-02-14T20:36:33;21.92;;;11.02;;
63653;SDS011;49809;47.418;19.080;2024-02-14T20:40:40;21.42;;;11.35;;
63653;SDS011;49809;47.418;19.080;2024-02-14T20:43:56;23.90;;;10.93;;
63653;SDS011;49809;47.418;19.080;2024-02-14T20:48:05;22.52;;;11.48;;
63653;SDS011;49809;47.418;19.080;2024-02-14T20:52:12;32.60;;;15.18;;
63653;SDS011;49809;47.418;19.080;2024-02-14T20:55:49;31.40;;;14.68;;
63653;SDS011;49809;47.418;19.080;2024-02-14T21:16:51;28.23;;;14.87;;
63653;SDS011;49809;47.418;19.080;2024-02-14T21:28:47;32.13;;;15.35;;
63653;SDS011;49809;47.418;19.080;2024-02-14T21:32:23;32.60;;;14.68;;
63653;SDS011;49809;47.418;19.080;2024-02-14T21:49:01;36.00;;;15.10;;
63653;SDS011;49809;47.418;19.080;2024-02-14T22:01:08;34.88;;;16.08;;
63653;SDS011;49809;47.418;19.080;2024-02-14T22:13:10;40.60;;;18.33;;
63653;SDS011;49809;47.418;19.080;2024-02-14T22:16:45;41.75;;;19.15;;
63653;SDS011;49809;47.418;19.080;2024-02-14T22:24:20;41.85;;;18.70;;
63653;SDS011;49809;47.418;19.080;2024-02-14T22:27:59;48.55;;;21.27;;
63653;SDS011;49809;47.418;19.080;2024-02-14T22:44:25;47.75;;;20.67;;
63653;SDS011;49809;47.418;19.080;2024-02-14T22:48:01;49.42;;;21.25;;
63653;SDS011;49809;47.418;19.080;2024-02-14T23:00:03;44.30;;;20.92;;
63653;SDS011;49809;47.418;19.080;2024-02-14T23:12:04;40.40;;;21.50;;
63653;SDS011;49809;47.418;19.080;2024-02-14T23:19:41;45.53;;;20.85;;
63653;SDS011;49809;47.418;19.080;2024-02-14T23:23:20;46.30;;;21.02;;
63653;SDS011;49809;47.418;19.080;2024-02-14T23:35:25;43.10;;;22.23;;
63653;SDS011;49809;47.418;19.080;2024-02-14T23:39:02;48.25;;;21.27;;
